»·PEaware :: SKY411 KSBP-KOAR

SKY411 :: KSBP-KOAR

FLIGHT INFORMATION

Flight Status: Arrived
Operator:
Skymark Airlines
More flights by this operator :: More flights under this callsign
Pilot: Sergei F. (8485)
Aircraft: BEECH AIRCRAFT BARON
(BE58)
More flights by this aircraft type
Origin: KSBP San Luis Co Regl
United States
Destination: KOAR Marina
United States
More flights between these airports :: More routes between these airports
Route: CREPE3 PRB V248 SNS
File this flight plan on PilotEdge
Remarks:
Altitude:
(Current/Filed)
8,000ft
Speed:
(Current/Filed)
160kts
Departed: 06-Oct-18 08:46 AM
Arrived: 06-Oct-18 09:38 AM
Distance/Time
Traveled:
102nm/0:51
Distance/Time
To Go:
Arrived

Flight Plot

Page will automatically refresh every two minutes.

Flight plan parsing failed; only flown route is shown


Map Options




Map Legend


Flown Route
Filed Route
Departure Airport
Arrival Airport
Navaid (VOR, NDB)
Fix

Horizontal Profiles

Position Reports

Time Latitude Longitude Heading Altitude Ground
Speed
06-Oct-18 08:34 35.237915 -120.638634 270 183ft 0kts
06-Oct-18 08:35 35.237915 -120.638634 270 183ft 0kts
06-Oct-18 08:36 35.237915 -120.638635 270 183ft 0kts
06-Oct-18 08:37 35.237915 -120.638635 270 183ft 0kts
06-Oct-18 08:38 35.237915 -120.638635 270 183ft 0kts
06-Oct-18 08:39 35.237915 -120.638644 270 183ft 1kts
06-Oct-18 08:40 35.237404 -120.639038 165 183ft 3kts
06-Oct-18 08:41 35.235847 -120.636485 124 183ft 13kts
06-Oct-18 08:42 35.233701 -120.632718 124 183ft 12kts
06-Oct-18 08:43 35.233060 -120.632063 223 183ft 0kts
06-Oct-18 08:44 35.233060 -120.632063 223 183ft 0kts
06-Oct-18 08:45 35.233060 -120.632063 223 183ft 0kts
06-Oct-18 08:46 35.233060 -120.632063 223 183ft 0kts
06-Oct-18 08:47 35.233030 -120.632106 234 183ft 2kts
06-Oct-18 08:48 35.235780 -120.638273 303 183ft 84kts
06-Oct-18 08:49 35.249255 -120.667046 305 1249ft 101kts
06-Oct-18 08:50 35.267028 -120.694158 308 2482ft 102kts
06-Oct-18 08:51 35.284763 -120.720934 308 3665ft 102kts
06-Oct-18 08:52 35.299367 -120.750316 304 4776ft 101kts
06-Oct-18 08:53 35.315660 -120.778030 306 5865ft 99kts
06-Oct-18 08:54 35.331193 -120.806140 302 6849ft 100kts
06-Oct-18 08:55 35.345594 -120.835467 302 7850ft 101kts
06-Oct-18 08:56 35.363588 -120.867987 337 7933ft 153kts
06-Oct-18 08:57 35.403098 -120.843177 27 7965ft 169kts
06-Oct-18 08:58 35.442139 -120.811319 27 7973ft 168kts
06-Oct-18 08:59 35.481296 -120.779928 27 7982ft 167kts
06-Oct-18 09:00 35.520328 -120.748802 27 7991ft 166kts
06-Oct-18 09:01 35.558982 -120.717998 27 7992ft 166kts
06-Oct-18 09:02 35.597785 -120.687070 27 7992ft 166kts
06-Oct-18 09:03 35.636651 -120.656164 27 7992ft 166kts
06-Oct-18 09:04 35.675569 -120.625483 26 7991ft 166kts
06-Oct-18 09:05 35.716485 -120.638856 335 7992ft 157kts
06-Oct-18 09:06 35.757146 -120.658992 338 7991ft 157kts
06-Oct-18 09:07 35.798374 -120.677033 339 7991ft 157kts
06-Oct-18 09:08 35.839950 -120.694295 340 7991ft 157kts
06-Oct-18 09:09 35.881526 -120.711212 340 7990ft 157kts
06-Oct-18 09:10 35.923086 -120.728005 340 7990ft 157kts
06-Oct-18 09:11 35.964831 -120.744838 340 7990ft 157kts
06-Oct-18 09:12 36.006340 -120.761662 340 7990ft 157kts
06-Oct-18 09:13 36.047997 -120.779016 340 7990ft 157kts
06-Oct-18 09:14 36.086369 -120.804305 324 7989ft 157kts
06-Oct-18 09:15 36.119589 -120.839157 318 7994ft 158kts
06-Oct-18 09:16 36.150537 -120.877933 315 8002ft 158kts
06-Oct-18 09:17 36.180267 -120.917912 314 8002ft 158kts
06-Oct-18 09:18 36.209566 -120.958409 313 8002ft 158kts
06-Oct-18 09:19 36.238690 -120.999108 313 8003ft 158kts
06-Oct-18 09:20 36.267715 -121.039868 313 7933ft 161kts
06-Oct-18 09:21 36.299042 -121.083966 312 7437ft 174kts
06-Oct-18 09:22 36.331264 -121.129527 312 6946ft 178kts
06-Oct-18 09:23 36.364237 -121.176158 312 6387ft 181kts
06-Oct-18 09:24 36.397473 -121.223198 311 5847ft 182kts
06-Oct-18 09:25 36.430776 -121.270398 311 5312ft 181kts
06-Oct-18 09:26 36.463580 -121.317154 311 5008ft 171kts
06-Oct-18 09:27 36.495024 -121.359601 329 5005ft 165kts
06-Oct-18 09:28 36.534381 -121.384052 332 5000ft 145kts
06-Oct-18 09:29 36.561318 -121.414709 306 4774ft 129kts
06-Oct-18 09:30 36.581286 -121.450814 305 4089ft 124kts
06-Oct-18 09:31 36.599766 -121.484763 304 3807ft 109kts
06-Oct-18 09:32 36.616194 -121.515188 304 3814ft 105kts
06-Oct-18 09:33 36.633834 -121.548020 304 3334ft 117kts
06-Oct-18 09:34 36.651222 -121.581183 303 2936ft 108kts
06-Oct-18 09:35 36.666549 -121.613399 281 2882ft 112kts
06-Oct-18 09:36 36.669452 -121.648834 278 2288ft 97kts
06-Oct-18 09:37 36.669750 -121.682456 251 1696ft 99kts
06-Oct-18 09:38 36.659994 -121.714388 265 997ft 98kts
06-Oct-18 09:39 36.671579 -121.743148 306 433ft 95kts
06-Oct-18 09:40 36.683432 -121.765324 303 136ft 30kts
06-Oct-18 09:41 36.682347 -121.766811 156 136ft 11kts
06-Oct-18 09:42 36.682039 -121.767113 28 136ft 0kts
06-Oct-18 09:43 36.682039 -121.767113 28 136ft 0kts
06-Oct-18 09:44 36.682039 -121.767113 28 136ft 0kts

Navigation Log

Ident Type
Flight plan parsing failed, navigation log unavailable